Time,TemperatureF,DewpointF,PressureIn,WindDirection,WindDirectionDegrees,WindSpeedMPH,WindSpeedGustMPH,Humidity,HourlyPrecipIn,Conditions,Clouds,dailyrainin,SoftwareType,DateUTC
2013-09-06 00:00:00,53.7,49.0,30.21,SE,124,1.0,-999.0,85,-99.99,,,0.00,weatherlink.com 1.10,2013-09-06 04:00:00,
2013-09-06 00:15:00,53.7,50.0,30.21,ESE,107,2.0,-999.0,86,-99.99,,,0.00,weatherlink.com 1.10,2013-09-06 04:15:00,
2013-09-06 00:30:00,53.6,50.0,30.21,East,97,1.0,-999.0,86,-99.99,,,0.00,weatherlink.com 1.10,2013-09-06 04:30:00,
2013-09-06 00:45:00,53.3,50.0,30.21,ESE,123,0.0,-999.0,87,-99.99,,,0.00,weatherlink.com 1.10,2013-09-06 04:45:00,
2013-09-06 01:00:00,52.9,50.0,30.21,ESE,107,2.0,-999.0,88,-99.99,,,0.00,weatherlink.com 1.10,2013-09-06 05:00:00,
2013-09-06 01:15:00,52.5,49.0,30.21,ESE,120,1.0,-999.0,88,-99.99,,,0.00,weatherlink.com 1.10,2013-09-06 05:15:00,
2013-09-06 01:30:00,52.4,49.0,30.21,ESE,120,1.0,-999.0,88,-99.99,,,0.00,weatherlink.com 1.10,2013-09-06 05:30:00,
2013-09-06 01:45:00,52.3,49.0,30.21,SE,130,1.0,-999.0,88,-99.99,,,0.00,weatherlink.com 1.10,2013-09-06 05:45:00,
2013-09-06 02:00:00,52.0,49.0,30.21,SE,130,0.0,-999.0,89,-99.99,,,0.00,weatherlink.com 1.10,2013-09-06 06:00:00,
2013-09-06 02:16:00,51.9,49.0,30.21,SE,130,0.0,-999.0,89,-99.99,,,0.00,weatherlink.com 1.10,2013-09-06 06:16:00,
2013-09-06 02:31:00,51.5,49.0,30.21,SE,130,0.0,-999.0,90,-99.99,,,0.00,weatherlink.com 1.10,2013-09-06 06:31:00,
2013-09-06 02:46:00,51.1,48.0,30.22,SE,130,0.0,-999.0,90,-99.99,,,0.00,weatherlink.com 1.10,2013-09-06 06:46:00,
2013-09-06 03:01:00,51.2,49.0,30.22,SE,130,0.0,-999.0,91,-99.99,,,0.00,weatherlink.com 1.10,2013-09-06 07:01:00,
2013-09-06 03:16:00,50.7,48.0,30.22,SE,130,0.0,-999.0,91,-99.99,,,0.00,weatherlink.com 1.10,2013-09-06 07:16:00,
2013-09-06 03:31:00,50.7,48.0,30.21,SE,130,0.0,-999.0,91,-99.99,,,0.00,weatherlink.com 1.10,2013-09-06 07:31:00,
2013-09-06 03:46:00,50.7,48.0,30.21,SE,130,0.0,-999.0,91,-99.99,,,0.00,weatherlink.com 1.10,2013-09-06 07:46:00,
2013-09-06 04:01:00,50.8,49.0,30.21,SE,146,0.0,-999.0,92,-99.99,,,0.00,weatherlink.com 1.10,2013-09-06 08:01:00,
2013-09-06 04:16:00,50.8,48.0,30.21,SSE,153,0.0,-999.0,91,-99.99,,,0.00,weatherlink.com 1.10,2013-09-06 08:16:00,
2013-09-06 04:31:00,51.0,49.0,30.21,SSE,153,0.0,-999.0,91,-99.99,,,0.00,weatherlink.com 1.10,2013-09-06 08:31:00,
2013-09-06 04:46:00,51.3,49.0,30.21,SSE,162,1.0,-999.0,91,-99.99,,,0.00,weatherlink.com 1.10,2013-09-06 08:46:00,
2013-09-06 05:01:00,51.7,49.0,30.22,WSW,244,4.0,-999.0,91,-99.99,,,0.00,weatherlink.com 1.10,2013-09-06 09:01:00,
2013-09-06 05:16:00,52.0,49.0,30.22,SW,236,2.0,-999.0,90,-99.99,,,0.00,weatherlink.com 1.10,2013-09-06 09:16:00,
2013-09-06 05:31:00,51.9,49.0,30.22,SSW,196,0.0,-999.0,90,-99.99,,,0.00,weatherlink.com 1.10,2013-09-06 09:31:00,
2013-09-06 05:46:00,51.3,49.0,30.22,SSW,196,0.0,-999.0,90,-99.99,,,0.00,weatherlink.com 1.10,2013-09-06 09:46:00,
2013-09-06 06:01:00,50.5,48.0,30.22,SSW,196,0.0,-999.0,90,-99.99,,,0.00,weatherlink.com 1.10,2013-09-06 10:01:00,
2013-09-06 06:16:00,49.9,47.0,30.23,SSW,196,0.0,-999.0,91,-99.99,,,0.00,weatherlink.com 1.10,2013-09-06 10:16:00,
2013-09-06 06:31:00,49.6,47.0,30.23,SSW,196,0.0,-999.0,92,-99.99,,,0.00,weatherlink.com 1.10,2013-09-06 10:31:00,
2013-09-06 06:46:00,49.3,47.0,30.23,SSW,196,0.0,-999.0,92,-99.99,,,0.00,weatherlink.com 1.10,2013-09-06 10:46:00,
2013-09-06 07:01:00,49.2,47.0,30.23,SSW,196,0.0,-999.0,93,-99.99,,,0.00,weatherlink.com 1.10,2013-09-06 11:01:00,
2013-09-06 07:16:00,49.2,47.0,30.23,SSW,196,0.0,-999.0,93,-99.99,,,0.00,weatherlink.com 1.10,2013-09-06 11:16:00,
2013-09-06 07:31:00,49.1,48.0,30.23,SSW,196,0.0,-999.0,94,-99.99,,,0.00,weatherlink.com 1.10,2013-09-06 11:31:00,
2013-09-06 07:46:00,49.2,48.0,30.23,SSW,196,0.0,-999.0,94,-99.99,,,0.00,weatherlink.com 1.10,2013-09-06 11:46:00,
2013-09-06 08:01:00,50.7,49.0,30.23,SW,232,3.0,-999.0,95,-99.99,,,0.00,weatherlink.com 1.10,2013-09-06 12:01:00,
2013-09-06 08:16:00,52.3,50.0,30.24,WSW,239,4.0,-999.0,92,-99.99,,,0.00,weatherlink.com 1.10,2013-09-06 12:16:00,
2013-09-06 08:31:00,53.8,51.0,30.23,SSW,213,0.0,-999.0,89,-99.99,,,0.00,weatherlink.com 1.10,2013-09-06 12:31:00,
2013-09-06 08:46:00,54.6,51.0,30.24,South,190,4.0,-999.0,87,-99.99,,,0.00,weatherlink.com 1.10,2013-09-06 12:46:00,
2013-09-06 09:01:00,55.5,51.0,30.23,South,180,4.0,-999.0,85,-99.99,,,0.00,weatherlink.com 1.10,2013-09-06 13:01:00,
2013-09-06 09:16:00,56.8,51.0,30.23,SW,234,4.0,-999.0,81,-99.99,,,0.00,weatherlink.com 1.10,2013-09-06 13:16:00,
2013-09-06 09:31:00,57.9,52.0,30.23,SSW,200,4.0,-999.0,81,-99.99,,,0.00,weatherlink.com 1.10,2013-09-06 13:31:00,
2013-09-06 09:46:00,58.7,49.0,30.23,SSW,213,6.0,-999.0,71,-99.99,,,0.00,weatherlink.com 1.10,2013-09-06 13:46:00,
2013-09-06 10:01:00,60.0,50.0,30.22,SW,236,8.0,-999.0,70,-99.99,,,0.00,weatherlink.com 1.10,2013-09-06 14:01:00,
2013-09-06 10:16:00,60.5,48.0,30.22,SSW,205,3.0,-999.0,63,-99.99,,,0.00,weatherlink.com 1.10,2013-09-06 14:16:00,
2013-09-06 10:31:00,61.5,49.0,30.23,SSW,204,3.0,-999.0,64,-99.99,,,0.00,weatherlink.com 1.10,2013-09-06 14:31:00,
2013-09-06 10:46:00,62.3,48.0,30.22,WSW,242,3.0,-999.0,61,-99.99,,,0.00,weatherlink.com 1.10,2013-09-06 14:46:00,
2013-09-06 11:01:00,62.7,47.0,30.22,SW,224,5.0,-999.0,57,-99.99,,,0.00,weatherlink.com 1.10,2013-09-06 15:01:00,
2013-09-06 11:16:00,63.6,49.0,30.22,SW,223,5.0,-999.0,59,-99.99,,,0.00,weatherlink.com 1.10,2013-09-06 15:16:00,
2013-09-06 11:32:00,63.9,49.0,30.21,SSW,213,4.0,-999.0,59,-99.99,,,0.00,weatherlink.com 1.10,2013-09-06 15:32:00,
2013-09-06 11:47:00,64.9,51.0,30.21,WSW,237,6.0,-999.0,60,-99.99,,,0.00,weatherlink.com 1.10,2013-09-06 15:47:00,
2013-09-06 12:02:00,65.3,51.0,30.21,West,263,2.0,-999.0,61,-99.99,,,0.00,weatherlink.com 1.10,2013-09-06 16:02:00,
2013-09-06 12:17:00,65.8,52.0,30.20,SW,234,4.0,-999.0,61,-99.99,,,0.00,weatherlink.com 1.10,2013-09-06 16:17:00,
2013-09-06 12:32:00,66.6,52.0,30.20,SW,219,4.0,-999.0,59,-99.99,,,0.00,weatherlink.com 1.10,2013-09-06 16:32:00,
2013-09-06 12:47:00,66.3,51.0,30.19,SW,232,0.0,-999.0,58,-99.99,,,0.00,weatherlink.com 1.10,2013-09-06 16:47:00,
2013-09-06 13:02:00,66.8,50.0,30.18,SW,236,6.0,-999.0,56,-99.99,,,0.00,weatherlink.com 1.10,2013-09-06 17:02:00,
2013-09-06 13:17:00,67.4,51.0,30.18,SW,227,4.0,-999.0,57,-99.99,,,0.00,weatherlink.com 1.10,2013-09-06 17:17:00,
2013-09-06 13:32:00,67.9,50.0,30.17,SSW,195,5.0,-999.0,54,-99.99,,,0.00,weatherlink.com 1.10,2013-09-06 17:32:00,
2013-09-06 13:47:00,68.5,52.0,30.16,WNW,300,3.0,-999.0,55,-99.99,,,0.00,weatherlink.com 1.10,2013-09-06 17:47:00,
2013-09-06 14:02:00,69.2,51.0,30.16,SW,232,6.0,-999.0,53,-99.99,,,0.00,weatherlink.com 1.10,2013-09-06 18:02:00,
2013-09-06 14:17:00,69.3,51.0,30.15,SSW,213,3.0,-999.0,52,-99.99,,,0.00,weatherlink.com 1.10,2013-09-06 18:17:00,
2013-09-06 14:32:00,69.9,52.0,30.14,SSW,211,5.0,-999.0,53,-99.99,,,0.00,weatherlink.com 1.10,2013-09-06 18:32:00,
2013-09-06 14:47:00,70.4,51.0,30.14,West,269,1.0,-999.0,50,-99.99,,,0.00,weatherlink.com 1.10,2013-09-06 18:47:00,
2013-09-06 15:02:00,71.0,51.0,30.13,SW,225,5.0,-999.0,49,-99.99,,,0.00,weatherlink.com 1.10,2013-09-06 19:02:00,
2013-09-06 15:17:00,70.2,52.0,30.12,SW,223,4.0,-999.0,52,-99.99,,,0.00,weatherlink.com 1.10,2013-09-06 19:17:00,
2013-09-06 15:32:00,71.1,52.0,30.12,WNW,286,4.0,-999.0,51,-99.99,,,0.00,weatherlink.com 1.10,2013-09-06 19:32:00,
2013-09-06 15:47:00,72.3,52.0,30.12,WSW,246,1.0,-999.0,49,-99.99,,,0.00,weatherlink.com 1.10,2013-09-06 19:47:00,
2013-09-06 16:02:00,71.3,51.0,30.11,SW,216,5.0,-999.0,49,-99.99,,,0.00,weatherlink.com 1.10,2013-09-06 20:02:00,
2013-09-06 16:17:00,71.9,54.0,30.11,WSW,253,3.0,-999.0,53,-99.99,,,0.00,weatherlink.com 1.10,2013-09-06 20:17:00,
2013-09-06 16:32:00,71.9,52.0,30.11,SW,223,3.0,-999.0,50,-99.99,,,0.00,weatherlink.com 1.10,2013-09-06 20:32:00,
2013-09-06 16:47:00,72.2,53.0,30.10,WSW,239,4.0,-999.0,52,-99.99,,,0.00,weatherlink.com 1.10,2013-09-06 20:47:00,
2013-09-06 17:02:00,72.8,54.0,30.10,WNW,288,3.0,-999.0,52,-99.99,,,0.00,weatherlink.com 1.10,2013-09-06 21:02:00,
2013-09-06 17:17:00,73.3,54.0,30.10,SSW,213,1.0,-999.0,51,-99.99,,,0.00,weatherlink.com 1.10,2013-09-06 21:17:00,
2013-09-06 17:32:00,74.2,54.0,30.11,West,259,2.0,-999.0,49,-99.99,,,0.00,weatherlink.com 1.10,2013-09-06 21:32:00,
2013-09-06 17:48:00,73.5,54.0,30.10,SW,224,0.0,-999.0,50,-99.99,,,0.00,weatherlink.com 1.10,2013-09-06 21:48:00,
2013-09-06 18:03:00,72.3,53.0,30.09,SW,230,2.0,-999.0,51,-99.99,,,0.00,weatherlink.com 1.10,2013-09-06 22:03:00,
2013-09-06 18:18:00,72.3,54.0,30.09,SW,235,3.0,-999.0,53,-99.99,,,0.00,weatherlink.com 1.10,2013-09-06 22:18:00,
2013-09-06 18:33:00,72.1,54.0,30.08,SSW,202,6.0,-999.0,54,-99.99,,,0.00,weatherlink.com 1.10,2013-09-06 22:33:00,
2013-09-06 18:48:00,71.8,55.0,30.08,SW,222,4.0,-999.0,55,-99.99,,,0.00,weatherlink.com 1.10,2013-09-06 22:48:00,
2013-09-06 19:03:00,71.5,55.0,30.07,SSW,195,6.0,-999.0,57,-99.99,,,0.00,weatherlink.com 1.10,2013-09-06 23:03:00,
2013-09-06 19:18:00,71.2,55.0,30.07,SW,234,6.0,-999.0,56,-99.99,,,0.00,weatherlink.com 1.10,2013-09-06 23:18:00,
2013-09-06 19:33:00,70.8,54.0,30.07,SW,236,4.0,-999.0,56,-99.99,,,0.00,weatherlink.com 1.10,2013-09-06 23:33:00,
2013-09-06 19:48:00,70.1,55.0,30.06,SSW,205,3.0,-999.0,59,-99.99,,,0.00,weatherlink.com 1.10,2013-09-06 23:48:00,
2013-09-06 20:03:00,69.5,54.0,30.06,SW,221,3.0,-999.0,59,-99.99,,,0.00,weatherlink.com 1.10,2013-09-07 00:03:00,
2013-09-06 20:18:00,68.8,54.0,30.06,SSW,212,3.0,-999.0,60,-99.99,,,0.00,weatherlink.com 1.10,2013-09-07 00:18:00,
2013-09-06 20:33:00,68.2,56.0,30.05,SSW,205,4.0,-999.0,66,-99.99,,,0.00,weatherlink.com 1.10,2013-09-07 00:33:00,
2013-09-06 20:48:00,67.7,55.0,30.05,SSW,200,2.0,-999.0,64,-99.99,,,0.00,weatherlink.com 1.10,2013-09-07 00:48:00,
2013-09-06 21:03:00,67.0,56.0,30.05,SW,214,2.0,-999.0,67,-99.99,,,0.00,weatherlink.com 1.10,2013-09-07 01:03:00,
2013-09-06 21:18:00,66.1,55.0,30.06,SSW,197,0.0,-999.0,68,-99.99,,,0.00,weatherlink.com 1.10,2013-09-07 01:18:00,
2013-09-06 21:33:00,65.4,56.0,30.06,SSW,213,5.0,-999.0,71,-99.99,,,0.00,weatherlink.com 1.10,2013-09-07 01:33:00,
2013-09-06 21:48:00,65.0,56.0,30.05,SSW,205,3.0,-999.0,72,-99.99,,,0.00,weatherlink.com 1.10,2013-09-07 01:48:00,
2013-09-06 22:03:00,64.6,56.0,30.04,SW,222,4.0,-999.0,73,-99.99,,,0.00,weatherlink.com 1.10,2013-09-07 02:03:00,
2013-09-06 22:18:00,64.4,56.0,30.04,SW,235,4.0,-999.0,75,-99.99,,,0.00,weatherlink.com 1.10,2013-09-07 02:18:00,
2013-09-06 22:33:00,63.9,56.0,30.04,SSW,211,5.0,-999.0,76,-99.99,,,0.00,weatherlink.com 1.10,2013-09-07 02:33:00,
2013-09-06 22:48:00,63.3,56.0,30.04,SSW,212,4.0,-999.0,77,-99.99,,,0.00,weatherlink.com 1.10,2013-09-07 02:48:00,
2013-09-06 23:03:00,63.0,56.0,30.03,SSW,209,5.0,-999.0,78,-99.99,,,0.00,weatherlink.com 1.10,2013-09-07 03:03:00,
2013-09-06 23:18:00,63.0,56.0,30.03,SW,226,5.0,-999.0,79,-99.99,,,0.00,weatherlink.com 1.10,2013-09-07 03:18:00,
2013-09-06 23:33:00,62.8,57.0,30.03,SSW,213,7.0,-999.0,80,-99.99,,,0.00,weatherlink.com 1.10,2013-09-07 03:33:00,
2013-09-06 23:48:00,62.5,56.0,30.02,WSW,237,4.0,-999.0,80,-99.99,,,0.00,weatherlink.com 1.10,2013-09-07 03:48:00,